sensor_id;sensor_type;location;lat;lon;timestamp;P1;durP1;ratioP1;P2;durP2;ratioP2
27543;SDS011;17996;51.056;3.656;2023-05-29T00:01:14;24.38;;;9.82;;
27543;SDS011;17996;51.056;3.656;2023-05-29T00:03:43;28.38;;;10.68;;
27543;SDS011;17996;51.056;3.656;2023-05-29T00:06:09;27.67;;;10.23;;
27543;SDS011;17996;51.056;3.656;2023-05-29T00:08:35;23.05;;;9.68;;
27543;SDS011;17996;51.056;3.656;2023-05-29T00:11:01;21.83;;;9.85;;
27543;SDS011;17996;51.056;3.656;2023-05-29T00:13:28;22.58;;;10.45;;
27543;SDS011;17996;51.056;3.656;2023-05-29T00:15:53;22.05;;;9.25;;
27543;SDS011;17996;51.056;3.656;2023-05-29T00:18:19;22.95;;;10.32;;
27543;SDS011;17996;51.056;3.656;2023-05-29T00:20:45;21.33;;;9.35;;
27543;SDS011;17996;51.056;3.656;2023-05-29T00:23:11;21.35;;;10.00;;
27543;SDS011;17996;51.056;3.656;2023-05-29T00:25:37;30.90;;;8.77;;
27543;SDS011;17996;51.056;3.656;2023-05-29T00:28:02;24.98;;;10.45;;
27543;SDS011;17996;51.056;3.656;2023-05-29T00:30:28;25.05;;;8.48;;
27543;SDS011;17996;51.056;3.656;2023-05-29T00:32:54;20.42;;;8.30;;
27543;SDS011;17996;51.056;3.656;2023-05-29T00:35:19;18.00;;;7.75;;
27543;SDS011;17996;51.056;3.656;2023-05-29T00:37:45;20.08;;;7.68;;
27543;SDS011;17996;51.056;3.656;2023-05-29T00:40:11;17.55;;;7.97;;
27543;SDS011;17996;51.056;3.656;2023-05-29T00:42:37;20.10;;;7.25;;
27543;SDS011;17996;51.056;3.656;2023-05-29T00:45:03;26.50;;;7.18;;
27543;SDS011;17996;51.056;3.656;2023-05-29T00:47:29;21.88;;;7.20;;
27543;SDS011;17996;51.056;3.656;2023-05-29T00:49:55;18.83;;;7.70;;
27543;SDS011;17996;51.056;3.656;2023-05-29T00:52:22;19.63;;;7.68;;
27543;SDS011;17996;51.056;3.656;2023-05-29T00:54:49;18.45;;;7.10;;
27543;SDS011;17996;51.056;3.656;2023-05-29T00:57:16;27.70;;;7.22;;
27543;SDS011;17996;51.056;3.656;2023-05-29T00:59:42;21.13;;;6.90;;
27543;SDS011;17996;51.056;3.656;2023-05-29T01:02:10;26.90;;;7.03;;
27543;SDS011;17996;51.056;3.656;2023-05-29T01:04:36;22.13;;;6.47;;
27543;SDS011;17996;51.056;3.656;2023-05-29T01:07:03;21.35;;;6.40;;
27543;SDS011;17996;51.056;3.656;2023-05-29T01:09:29;21.65;;;6.30;;
27543;SDS011;17996;51.056;3.656;2023-05-29T01:14:29;21.42;;;4.93;;
27543;SDS011;17996;51.056;3.656;2023-05-29T01:17:32;25.23;;;5.05;;
27543;SDS011;17996;51.056;3.656;2023-05-29T01:20:16;21.38;;;6.00;;
27543;SDS011;17996;51.056;3.656;2023-05-29T01:23:03;20.63;;;5.57;;
27543;SDS011;17996;51.056;3.656;2023-05-29T01:28:33;19.38;;;4.95;;
27543;SDS011;17996;51.056;3.656;2023-05-29T01:31:06;17.10;;;4.50;;
27543;SDS011;17996;51.056;3.656;2023-05-29T01:33:33;23.25;;;5.35;;
27543;SDS011;17996;51.056;3.656;2023-05-29T01:35:58;26.02;;;5.32;;
27543;SDS011;17996;51.056;3.656;2023-05-29T01:38:24;21.67;;;5.32;;
27543;SDS011;17996;51.056;3.656;2023-05-29T01:40:50;22.67;;;4.72;;
27543;SDS011;17996;51.056;3.656;2023-05-29T01:43:16;21.30;;;5.35;;
27543;SDS011;17996;51.056;3.656;2023-05-29T01:45:42;19.65;;;5.43;;
27543;SDS011;17996;51.056;3.656;2023-05-29T01:48:09;14.27;;;4.63;;
27543;SDS011;17996;51.056;3.656;2023-05-29T01:50:34;15.35;;;4.70;;
27543;SDS011;17996;51.056;3.656;2023-05-29T01:53:01;23.35;;;5.47;;
27543;SDS011;17996;51.056;3.656;2023-05-29T01:55:26;19.98;;;5.20;;
27543;SDS011;17996;51.056;3.656;2023-05-29T01:57:52;31.88;;;5.55;;
27543;SDS011;17996;51.056;3.656;2023-05-29T02:00:19;16.75;;;4.80;;
27543;SDS011;17996;51.056;3.656;2023-05-29T02:02:45;16.08;;;4.32;;
27543;SDS011;17996;51.056;3.656;2023-05-29T02:05:11;32.95;;;6.03;;
27543;SDS011;17996;51.056;3.656;2023-05-29T02:07:36;19.15;;;5.60;;
27543;SDS011;17996;51.056;3.656;2023-05-29T02:10:06;19.80;;;5.53;;
27543;SDS011;17996;51.056;3.656;2023-05-29T02:12:32;27.70;;;6.18;;
27543;SDS011;17996;51.056;3.656;2023-05-29T02:14:58;20.17;;;4.25;;
27543;SDS011;17996;51.056;3.656;2023-05-29T02:17:23;24.55;;;5.35;;
27543;SDS011;17996;51.056;3.656;2023-05-29T02:19:50;21.27;;;4.68;;
27543;SDS011;17996;51.056;3.656;2023-05-29T02:22:16;23.60;;;6.10;;
27543;SDS011;17996;51.056;3.656;2023-05-29T02:24:42;25.17;;;5.15;;
27543;SDS011;17996;51.056;3.656;2023-05-29T02:27:09;22.15;;;5.00;;
27543;SDS011;17996;51.056;3.656;2023-05-29T02:29:35;16.67;;;4.10;;
27543;SDS011;17996;51.056;3.656;2023-05-29T02:32:00;21.67;;;5.22;;
27543;SDS011;17996;51.056;3.656;2023-05-29T02:34:26;24.63;;;4.88;;
27543;SDS011;17996;51.056;3.656;2023-05-29T02:36:52;27.52;;;5.10;;
27543;SDS011;17996;51.056;3.656;2023-05-29T02:39:18;23.48;;;5.03;;
27543;SDS011;17996;51.056;3.656;2023-05-29T02:41:44;22.15;;;5.75;;
27543;SDS011;17996;51.056;3.656;2023-05-29T02:44:10;22.65;;;5.22;;
27543;SDS011;17996;51.056;3.656;2023-05-29T02:46:36;20.52;;;6.18;;
27543;SDS011;17996;51.056;3.656;2023-05-29T02:49:01;19.58;;;4.90;;
27543;SDS011;17996;51.056;3.656;2023-05-29T02:51:27;18.88;;;5.47;;
27543;SDS011;17996;51.056;3.656;2023-05-29T02:53:53;18.15;;;6.00;;
27543;SDS011;17996;51.056;3.656;2023-05-29T02:56:19;28.52;;;6.30;;
27543;SDS011;17996;51.056;3.656;2023-05-29T02:58:51;19.95;;;5.30;;
27543;SDS011;17996;51.056;3.656;2023-05-29T03:01:17;19.73;;;5.55;;
27543;SDS011;17996;51.056;3.656;2023-05-29T03:03:43;26.58;;;5.65;;
27543;SDS011;17996;51.056;3.656;2023-05-29T03:06:09;26.38;;;5.45;;
27543;SDS011;17996;51.056;3.656;2023-05-29T03:08:42;25.88;;;5.18;;
27543;SDS011;17996;51.056;3.656;2023-05-29T03:11:10;20.05;;;4.97;;
27543;SDS011;17996;51.056;3.656;2023-05-29T03:13:37;14.93;;;4.38;;
27543;SDS011;17996;51.056;3.656;2023-05-29T03:16:03;21.75;;;5.72;;
27543;SDS011;17996;51.056;3.656;2023-05-29T03:18:29;17.80;;;5.25;;
27543;SDS011;17996;51.056;3.656;2023-05-29T03:20:55;24.85;;;5.47;;
27543;SDS011;17996;51.056;3.656;2023-05-29T03:23:21;18.80;;;5.03;;
27543;SDS011;17996;51.056;3.656;2023-05-29T03:25:47;25.70;;;6.78;;
27543;SDS011;17996;51.056;3.656;2023-05-29T03:28:13;19.88;;;4.80;;
27543;SDS011;17996;51.056;3.656;2023-05-29T03:30:39;14.98;;;4.55;;
27543;SDS011;17996;51.056;3.656;2023-05-29T03:33:04;16.25;;;5.10;;
27543;SDS011;17996;51.056;3.656;2023-05-29T03:35:30;22.52;;;4.43;;
27543;SDS011;17996;51.056;3.656;2023-05-29T03:37:56;23.95;;;5.68;;
27543;SDS011;17996;51.056;3.656;2023-05-29T03:40:22;19.13;;;5.03;;
27543;SDS011;17996;51.056;3.656;2023-05-29T03:42:47;27.70;;;5.65;;
27543;SDS011;17996;51.056;3.656;2023-05-29T03:45:13;25.50;;;6.28;;
27543;SDS011;17996;51.056;3.656;2023-05-29T03:47:38;23.35;;;5.32;;
27543;SDS011;17996;51.056;3.656;2023-05-29T03:50:04;21.23;;;5.07;;
27543;SDS011;17996;51.056;3.656;2023-05-29T03:52:30;19.45;;;5.80;;
27543;SDS011;17996;51.056;3.656;2023-05-29T03:54:56;24.70;;;6.18;;
27543;SDS011;17996;51.056;3.656;2023-05-29T03:57:21;17.20;;;4.80;;
27543;SDS011;17996;51.056;3.656;2023-05-29T03:59:48;18.77;;;5.85;;
27543;SDS011;17996;51.056;3.656;2023-05-29T04:02:14;20.88;;;5.57;;
27543;SDS011;17996;51.056;3.656;2023-05-29T04:04:40;20.67;;;4.72;;
27543;SDS011;17996;51.056;3.656;2023-05-29T04:07:05;25.00;;;4.80;;
27543;SDS011;17996;51.056;3.656;2023-05-29T04:09:32;20.77;;;4.47;;
27543;SDS011;17996;51.056;3.656;2023-05-29T04:11:58;22.77;;;4.70;;
27543;SDS011;17996;51.056;3.656;2023-05-29T04:14:27;27.65;;;5.75;;
27543;SDS011;17996;51.056;3.656;2023-05-29T04:16:53;24.05;;;5.10;;
27543;SDS011;17996;51.056;3.656;2023-05-29T04:19:19;18.92;;;5.38;;
27543;SDS011;17996;51.056;3.656;2023-05-29T04:21:46;23.88;;;4.72;;
27543;SDS011;17996;51.056;3.656;2023-05-29T04:24:13;22.65;;;5.60;;
27543;SDS011;17996;51.056;3.656;2023-05-29T04:26:39;28.50;;;5.30;;
27543;SDS011;17996;51.056;3.656;2023-05-29T04:29:06;26.05;;;4.78;;
27543;SDS011;17996;51.056;3.656;2023-05-29T04:31:37;28.08;;;4.90;;
27543;SDS011;17996;51.056;3.656;2023-05-29T04:34:03;33.67;;;5.55;;
27543;SDS011;17996;51.056;3.656;2023-05-29T04:36:32;22.50;;;4.80;;
27543;SDS011;17996;51.056;3.656;2023-05-29T04:38:58;23.83;;;5.10;;
27543;SDS011;17996;51.056;3.656;2023-05-29T04:41:25;27.20;;;5.75;;
27543;SDS011;17996;51.056;3.656;2023-05-29T04:43:56;20.52;;;5.38;;
27543;SDS011;17996;51.056;3.656;2023-05-29T04:46:22;20.13;;;4.75;;
27543;SDS011;17996;51.056;3.656;2023-05-29T04:48:49;21.92;;;5.57;;
27543;SDS011;17996;51.056;3.656;2023-05-29T04:51:21;24.67;;;4.38;;
27543;SDS011;17996;51.056;3.656;2023-05-29T04:53:47;24.55;;;4.45;;
27543;SDS011;17996;51.056;3.656;2023-05-29T04:56:14;25.00;;;5.20;;
27543;SDS011;17996;51.056;3.656;2023-05-29T04:58:42;21.35;;;5.53;;
27543;SDS011;17996;51.056;3.656;2023-05-29T05:01:08;32.60;;;6.20;;
27543;SDS011;17996;51.056;3.656;2023-05-29T05:03:35;23.02;;;5.78;;
27543;SDS011;17996;51.056;3.656;2023-05-29T05:06:01;28.42;;;6.70;;
27543;SDS011;17996;51.056;3.656;2023-05-29T05:08:28;32.05;;;7.68;;
27543;SDS011;17996;51.056;3.656;2023-05-29T05:10:54;37.08;;;6.88;;
27543;SDS011;17996;51.056;3.656;2023-05-29T05:13:20;28.98;;;6.03;;
27543;SDS011;17996;51.056;3.656;2023-05-29T05:15:46;25.15;;;6.15;;
27543;SDS011;17996;51.056;3.656;2023-05-29T05:18:12;25.20;;;7.05;;
27543;SDS011;17996;51.056;3.656;2023-05-29T05:20:37;31.17;;;7.43;;
27543;SDS011;17996;51.056;3.656;2023-05-29T05:23:03;26.88;;;6.97;;
27543;SDS011;17996;51.056;3.656;2023-05-29T05:25:29;25.35;;;6.78;;
27543;SDS011;17996;51.056;3.656;2023-05-29T05:27:55;22.65;;;5.93;;
27543;SDS011;17996;51.056;3.656;2023-05-29T05:30:21;28.20;;;6.53;;
27543;SDS011;17996;51.056;3.656;2023-05-29T05:32:47;26.00;;;5.70;;
27543;SDS011;17996;51.056;3.656;2023-05-29T05:35:13;25.85;;;5.88;;
27543;SDS011;17996;51.056;3.656;2023-05-29T05:37:39;33.40;;;6.25;;
27543;SDS011;17996;51.056;3.656;2023-05-29T05:40:05;23.25;;;4.47;;
27543;SDS011;17996;51.056;3.656;2023-05-29T05:42:32;24.27;;;5.28;;
27543;SDS011;17996;51.056;3.656;2023-05-29T05:44:58;25.80;;;5.43;;
27543;SDS011;17996;51.056;3.656;2023-05-29T05:47:23;21.08;;;4.80;;
27543;SDS011;17996;51.056;3.656;2023-05-29T05:49:49;18.90;;;4.50;;
27543;SDS011;17996;51.056;3.656;2023-05-29T05:52:17;18.58;;;3.75;;
27543;SDS011;17996;51.056;3.656;2023-05-29T05:54:43;18.92;;;4.30;;
27543;SDS011;17996;51.056;3.656;2023-05-29T05:57:09;22.13;;;4.88;;
27543;SDS011;17996;51.056;3.656;2023-05-29T05:59:35;27.00;;;4.78;;
27543;SDS011;17996;51.056;3.656;2023-05-29T06:02:01;20.67;;;4.72;;
27543;SDS011;17996;51.056;3.656;2023-05-29T06:04:28;20.55;;;4.90;;
27543;SDS011;17996;51.056;3.656;2023-05-29T06:06:54;31.67;;;6.00;;
27543;SDS011;17996;51.056;3.656;2023-05-29T06:09:20;17.85;;;5.13;;
27543;SDS011;17996;51.056;3.656;2023-05-29T06:11:46;24.58;;;5.03;;
27543;SDS011;17996;51.056;3.656;2023-05-29T06:14:13;21.50;;;6.13;;
27543;SDS011;17996;51.056;3.656;2023-05-29T06:16:39;26.27;;;6.03;;
27543;SDS011;17996;51.056;3.656;2023-05-29T06:19:05;29.38;;;5.22;;
27543;SDS011;17996;51.056;3.656;2023-05-29T06:21:33;23.77;;;5.60;;
27543;SDS011;17996;51.056;3.656;2023-05-29T06:23:59;15.60;;;5.03;;
27543;SDS011;17996;51.056;3.656;2023-05-29T06:26:25;27.88;;;5.07;;
27543;SDS011;17996;51.056;3.656;2023-05-29T06:28:52;23.52;;;4.97;;
27543;SDS011;17996;51.056;3.656;2023-05-29T06:31:18;29.10;;;5.05;;
27543;SDS011;17996;51.056;3.656;2023-05-29T06:33:44;21.63;;;4.85;;
27543;SDS011;17996;51.056;3.656;2023-05-29T06:36:10;22.10;;;4.93;;
27543;SDS011;17996;51.056;3.656;2023-05-29T06:38:36;22.88;;;4.38;;
27543;SDS011;17996;51.056;3.656;2023-05-29T06:41:02;29.80;;;5.03;;
27543;SDS011;17996;51.056;3.656;2023-05-29T06:43:28;21.15;;;5.32;;
27543;SDS011;17996;51.056;3.656;2023-05-29T06:45:54;19.30;;;3.95;;
27543;SDS011;17996;51.056;3.656;2023-05-29T06:48:20;21.98;;;4.43;;
27543;SDS011;17996;51.056;3.656;2023-05-29T06:50:47;22.75;;;6.00;;
27543;SDS011;17996;51.056;3.656;2023-05-29T06:53:13;18.70;;;4.22;;
27543;SDS011;17996;51.056;3.656;2023-05-29T06:55:38;24.15;;;4.43;;
27543;SDS011;17996;51.056;3.656;2023-05-29T06:58:07;28.20;;;6.28;;
27543;SDS011;17996;51.056;3.656;2023-05-29T07:00:32;16.75;;;3.97;;
27543;SDS011;17996;51.056;3.656;2023-05-29T07:02:58;21.90;;;5.25;;
27543;SDS011;17996;51.056;3.656;2023-05-29T07:05:24;13.05;;;4.03;;
27543;SDS011;17996;51.056;3.656;2023-05-29T07:07:51;13.90;;;4.70;;
27543;SDS011;17996;51.056;3.656;2023-05-29T07:10:17;22.77;;;5.35;;
27543;SDS011;17996;51.056;3.656;2023-05-29T07:12:42;37.92;;;7.72;;
27543;SDS011;17996;51.056;3.656;2023-05-29T07:15:08;32.90;;;5.88;;
27543;SDS011;17996;51.056;3.656;2023-05-29T07:17:34;22.45;;;6.05;;
27543;SDS011;17996;51.056;3.656;2023-05-29T07:20:00;24.92;;;5.45;;
27543;SDS011;17996;51.056;3.656;2023-05-29T07:22:26;25.88;;;6.10;;
27543;SDS011;17996;51.056;3.656;2023-05-29T07:24:51;27.20;;;5.53;;
27543;SDS011;17996;51.056;3.656;2023-05-29T07:27:17;28.85;;;5.10;;
27543;SDS011;17996;51.056;3.656;2023-05-29T07:29:43;17.73;;;4.93;;
27543;SDS011;17996;51.056;3.656;2023-05-29T07:32:08;23.77;;;4.90;;
27543;SDS011;17996;51.056;3.656;2023-05-29T07:34:35;26.77;;;5.82;;
27543;SDS011;17996;51.056;3.656;2023-05-29T07:37:01;25.58;;;6.10;;
27543;SDS011;17996;51.056;3.656;2023-05-29T07:39:29;19.57;;;5.43;;
27543;SDS011;17996;51.056;3.656;2023-05-29T07:41:55;25.27;;;4.28;;
27543;SDS011;17996;51.056;3.656;2023-05-29T07:44:21;24.70;;;4.72;;
27543;SDS011;17996;51.056;3.656;2023-05-29T07:46:47;21.33;;;4.40;;
27543;SDS011;17996;51.056;3.656;2023-05-29T07:49:13;26.63;;;5.15;;
27543;SDS011;17996;51.056;3.656;2023-05-29T07:51:40;21.38;;;4.35;;
27543;SDS011;17996;51.056;3.656;2023-05-29T07:54:06;19.85;;;5.50;;
27543;SDS011;17996;51.056;3.656;2023-05-29T07:56:32;19.67;;;5.38;;
27543;SDS011;17996;51.056;3.656;2023-05-29T07:58:59;25.35;;;5.70;;
27543;SDS011;17996;51.056;3.656;2023-05-29T08:01:25;19.52;;;4.90;;
27543;SDS011;17996;51.056;3.656;2023-05-29T08:03:51;21.10;;;4.55;;
27543;SDS011;17996;51.056;3.656;2023-05-29T08:06:17;22.20;;;5.20;;
27543;SDS011;17996;51.056;3.656;2023-05-29T08:08:43;25.55;;;5.10;;
27543;SDS011;17996;51.056;3.656;2023-05-29T08:11:09;27.75;;;5.05;;
27543;SDS011;17996;51.056;3.656;2023-05-29T08:13:35;27.58;;;5.82;;
27543;SDS011;17996;51.056;3.656;2023-05-29T08:16:01;26.65;;;4.60;;
27543;SDS011;17996;51.056;3.656;2023-05-29T08:18:29;31.13;;;5.00;;
27543;SDS011;17996;51.056;3.656;2023-05-29T08:20:56;17.77;;;4.63;;
27543;SDS011;17996;51.056;3.656;2023-05-29T08:23:21;18.65;;;4.60;;
27543;SDS011;17996;51.056;3.656;2023-05-29T08:25:47;28.00;;;4.82;;
27543;SDS011;17996;51.056;3.656;2023-05-29T08:28:14;23.50;;;5.82;;
27543;SDS011;17996;51.056;3.656;2023-05-29T08:30:39;19.35;;;4.68;;
27543;SDS011;17996;51.056;3.656;2023-05-29T08:33:06;28.45;;;5.20;;
27543;SDS011;17996;51.056;3.656;2023-05-29T08:35:31;25.77;;;4.57;;
27543;SDS011;17996;51.056;3.656;2023-05-29T08:37:58;17.60;;;3.92;;
27543;SDS011;17996;51.056;3.656;2023-05-29T08:40:24;29.05;;;5.53;;
27543;SDS011;17996;51.056;3.656;2023-05-29T08:42:56;20.80;;;5.40;;
27543;SDS011;17996;51.056;3.656;2023-05-29T08:45:24;27.80;;;5.88;;
27543;SDS011;17996;51.056;3.656;2023-05-29T08:47:51;25.52;;;5.03;;
27543;SDS011;17996;51.056;3.656;2023-05-29T08:50:19;19.73;;;4.53;;
27543;SDS011;17996;51.056;3.656;2023-05-29T08:52:46;20.15;;;4.38;;
27543;SDS011;17996;51.056;3.656;2023-05-29T08:55:12;25.80;;;5.32;;
27543;SDS011;17996;51.056;3.656;2023-05-29T08:57:39;34.30;;;5.15;;
27543;SDS011;17996;51.056;3.656;2023-05-29T09:02:45;21.48;;;4.13;;
27543;SDS011;17996;51.056;3.656;2023-05-29T09:05:10;24.83;;;4.07;;
27543;SDS011;17996;51.056;3.656;2023-05-29T09:07:37;19.85;;;4.38;;
27543;SDS011;17996;51.056;3.656;2023-05-29T09:10:10;31.95;;;6.70;;
27543;SDS011;17996;51.056;3.656;2023-05-29T09:12:36;18.30;;;4.38;;
27543;SDS011;17996;51.056;3.656;2023-05-29T09:15:03;31.27;;;5.07;;
27543;SDS011;17996;51.056;3.656;2023-05-29T09:17:52;24.35;;;5.10;;
27543;SDS011;17996;51.056;3.656;2023-05-29T09:20:19;23.35;;;5.65;;
27543;SDS011;17996;51.056;3.656;2023-05-29T09:23:05;34.28;;;6.30;;
27543;SDS011;17996;51.056;3.656;2023-05-29T09:25:32;19.33;;;4.38;;
27543;SDS011;17996;51.056;3.656;2023-05-29T09:27:59;24.00;;;5.15;;
27543;SDS011;17996;51.056;3.656;2023-05-29T09:30:38;26.85;;;5.57;;
27543;SDS011;17996;51.056;3.656;2023-05-29T09:33:08;22.13;;;5.20;;
27543;SDS011;17996;51.056;3.656;2023-05-29T09:35:35;27.38;;;6.13;;
27543;SDS011;17996;51.056;3.656;2023-05-29T09:38:02;31.13;;;6.28;;
27543;SDS011;17996;51.056;3.656;2023-05-29T09:40:32;23.17;;;5.15;;
27543;SDS011;17996;51.056;3.656;2023-05-29T09:43:06;22.98;;;4.97;;
27543;SDS011;17996;51.056;3.656;2023-05-29T09:45:42;19.83;;;5.10;;
27543;SDS011;17996;51.056;3.656;2023-05-29T09:48:13;25.00;;;4.95;;
27543;SDS011;17996;51.056;3.656;2023-05-29T09:50:40;24.38;;;4.97;;
27543;SDS011;17996;51.056;3.656;2023-05-29T09:53:16;15.50;;;3.78;;
27543;SDS011;17996;51.056;3.656;2023-05-29T09:55:48;21.58;;;4.43;;
27543;SDS011;17996;51.056;3.656;2023-05-29T09:58:17;23.13;;;5.47;;
27543;SDS011;17996;51.056;3.656;2023-05-29T10:00:43;23.23;;;5.32;;
27543;SDS011;17996;51.056;3.656;2023-05-29T10:03:10;26.67;;;5.53;;
27543;SDS011;17996;51.056;3.656;2023-05-29T10:05:38;30.08;;;5.28;;
27543;SDS011;17996;51.056;3.656;2023-05-29T10:08:05;21.75;;;4.65;;
27543;SDS011;17996;51.056;3.656;2023-05-29T10:10:37;26.90;;;4.70;;
27543;SDS011;17996;51.056;3.656;2023-05-29T10:13:12;19.83;;;4.82;;
27543;SDS011;17996;51.056;3.656;2023-05-29T10:15:43;21.10;;;5.30;;
27543;SDS011;17996;51.056;3.656;2023-05-29T10:18:21;20.13;;;4.65;;
27543;SDS011;17996;51.056;3.656;2023-05-29T10:20:54;16.45;;;4.20;;
27543;SDS011;17996;51.056;3.656;2023-05-29T10:23:24;22.10;;;5.18;;
27543;SDS011;17996;51.056;3.656;2023-05-29T10:25:52;31.63;;;5.90;;
27543;SDS011;17996;51.056;3.656;2023-05-29T10:28:18;21.98;;;4.55;;
27543;SDS011;17996;51.056;3.656;2023-05-29T10:30:47;26.98;;;6.05;;
27543;SDS011;17996;51.056;3.656;2023-05-29T10:38:46;24.02;;;5.50;;
27543;SDS011;17996;51.056;3.656;2023-05-29T10:47:04;21.42;;;5.53;;
27543;SDS011;17996;51.056;3.656;2023-05-29T10:49:30;26.33;;;5.13;;
27543;SDS011;17996;51.056;3.656;2023-05-29T10:51:57;26.52;;;5.47;;
27543;SDS011;17996;51.056;3.656;2023-05-29T10:54:26;20.73;;;4.35;;
27543;SDS011;17996;51.056;3.656;2023-05-29T10:56:52;32.55;;;6.25;;
27543;SDS011;17996;51.056;3.656;2023-05-29T10:59:21;15.55;;;4.97;;
27543;SDS011;17996;51.056;3.656;2023-05-29T11:01:51;22.77;;;5.30;;
27543;SDS011;17996;51.056;3.656;2023-05-29T11:06:47;24.10;;;4.45;;
27543;SDS011;17996;51.056;3.656;2023-05-29T11:09:29;18.95;;;4.38;;
27543;SDS011;17996;51.056;3.656;2023-05-29T11:14:47;19.35;;;5.10;;
27543;SDS011;17996;51.056;3.656;2023-05-29T11:20:50;18.05;;;4.85;;
27543;SDS011;17996;51.056;3.656;2023-05-29T11:23:03;25.60;;;4.97;;
27543;SDS011;17996;51.056;3.656;2023-05-29T11:25:37;24.10;;;5.00;;
27543;SDS011;17996;51.056;3.656;2023-05-29T11:28:04;20.45;;;4.70;;
27543;SDS011;17996;51.056;3.656;2023-05-29T11:30:40;21.58;;;4.72;;
27543;SDS011;17996;51.056;3.656;2023-05-29T11:33:07;22.48;;;4.32;;
27543;SDS011;17996;51.056;3.656;2023-05-29T11:35:35;20.65;;;5.22;;
27543;SDS011;17996;51.056;3.656;2023-05-29T11:38:03;17.85;;;3.47;;
27543;SDS011;17996;51.056;3.656;2023-05-29T11:40:29;18.02;;;4.15;;
27543;SDS011;17996;51.056;3.656;2023-05-29T11:43:01;18.42;;;4.07;;
27543;SDS011;17996;51.056;3.656;2023-05-29T11:45:26;27.35;;;5.53;;
27543;SDS011;17996;51.056;3.656;2023-05-29T11:48:00;17.92;;;4.60;;
27543;SDS011;17996;51.056;3.656;2023-05-29T11:50:28;11.27;;;3.83;;
27543;SDS011;17996;51.056;3.656;2023-05-29T11:52:58;25.08;;;5.20;;
27543;SDS011;17996;51.056;3.656;2023-05-29T11:55:24;18.42;;;3.45;;
27543;SDS011;17996;51.056;3.656;2023-05-29T11:57:55;21.65;;;4.82;;
27543;SDS011;17996;51.056;3.656;2023-05-29T12:00:25;17.73;;;5.70;;
27543;SDS011;17996;51.056;3.656;2023-05-29T12:02:57;20.90;;;4.63;;
27543;SDS011;17996;51.056;3.656;2023-05-29T12:05:23;16.58;;;4.05;;
27543;SDS011;17996;51.056;3.656;2023-05-29T12:07:55;19.25;;;4.38;;
27543;SDS011;17996;51.056;3.656;2023-05-29T12:10:21;18.48;;;4.25;;
27543;SDS011;17996;51.056;3.656;2023-05-29T12:12:51;16.23;;;4.00;;
27543;SDS011;17996;51.056;3.656;2023-05-29T12:15:18;22.20;;;4.47;;
27543;SDS011;17996;51.056;3.656;2023-05-29T12:17:44;19.65;;;3.90;;
27543;SDS011;17996;51.056;3.656;2023-05-29T12:20:11;30.45;;;4.68;;
27543;SDS011;17996;51.056;3.656;2023-05-29T12:22:39;14.52;;;4.10;;
27543;SDS011;17996;51.056;3.656;2023-05-29T12:25:09;13.98;;;3.85;;
27543;SDS011;17996;51.056;3.656;2023-05-29T12:27:40;20.13;;;4.38;;
27543;SDS011;17996;51.056;3.656;2023-05-29T12:30:08;21.45;;;4.65;;
27543;SDS011;17996;51.056;3.656;2023-05-29T12:32:39;17.38;;;4.93;;
27543;SDS011;17996;51.056;3.656;2023-05-29T12:35:12;18.92;;;4.55;;
27543;SDS011;17996;51.056;3.656;2023-05-29T12:37:45;21.60;;;4.63;;
27543;SDS011;17996;51.056;3.656;2023-05-29T12:40:18;14.77;;;4.00;;
27543;SDS011;17996;51.056;3.656;2023-05-29T12:42:45;16.13;;;4.68;;
27543;SDS011;17996;51.056;3.656;2023-05-29T12:45:12;15.50;;;3.50;;
27543;SDS011;17996;51.056;3.656;2023-05-29T12:48:12;15.35;;;4.15;;
27543;SDS011;17996;51.056;3.656;2023-05-29T12:50:33;18.33;;;3.95;;
27543;SDS011;17996;51.056;3.656;2023-05-29T12:55:30;18.38;;;4.20;;
27543;SDS011;17996;51.056;3.656;2023-05-29T12:58:07;12.82;;;3.88;;
27543;SDS011;17996;51.056;3.656;2023-05-29T13:00:38;13.90;;;4.82;;
27543;SDS011;17996;51.056;3.656;2023-05-29T13:03:06;18.17;;;4.45;;
27543;SDS011;17996;51.056;3.656;2023-05-29T13:05:32;11.27;;;4.10;;
27543;SDS011;17996;51.056;3.656;2023-05-29T13:07:59;13.65;;;3.83;;
27543;SDS011;17996;51.056;3.656;2023-05-29T13:10:25;13.75;;;3.80;;
27543;SDS011;17996;51.056;3.656;2023-05-29T13:12:52;16.58;;;4.38;;
27543;SDS011;17996;51.056;3.656;2023-05-29T13:15:20;16.88;;;4.72;;
27543;SDS011;17996;51.056;3.656;2023-05-29T13:17:47;21.15;;;5.20;;
27543;SDS011;17996;51.056;3.656;2023-05-29T13:20:13;14.82;;;4.25;;
27543;SDS011;17996;51.056;3.656;2023-05-29T13:22:40;16.83;;;4.50;;
27543;SDS011;17996;51.056;3.656;2023-05-29T13:25:08;15.55;;;4.05;;
27543;SDS011;17996;51.056;3.656;2023-05-29T13:27:37;11.00;;;3.15;;
27543;SDS011;17996;51.056;3.656;2023-05-29T13:30:04;12.95;;;3.05;;
27543;SDS011;17996;51.056;3.656;2023-05-29T13:32:31;13.65;;;4.63;;
27543;SDS011;17996;51.056;3.656;2023-05-29T13:34:57;17.40;;;4.05;;
27543;SDS011;17996;51.056;3.656;2023-05-29T13:37:22;25.30;;;4.38;;
27543;SDS011;17996;51.056;3.656;2023-05-29T13:39:48;15.80;;;4.28;;
27543;SDS011;17996;51.056;3.656;2023-05-29T13:42:14;15.55;;;3.85;;
27543;SDS011;17996;51.056;3.656;2023-05-29T13:44:40;15.30;;;3.97;;
27543;SDS011;17996;51.056;3.656;2023-05-29T13:47:06;13.98;;;3.38;;
27543;SDS011;17996;51.056;3.656;2023-05-29T13:49:33;12.82;;;4.40;;
27543;SDS011;17996;51.056;3.656;2023-05-29T13:51:59;11.70;;;3.22;;
27543;SDS011;17996;51.056;3.656;2023-05-29T13:54:25;17.67;;;4.05;;
27543;SDS011;17996;51.056;3.656;2023-05-29T13:56:52;13.30;;;3.80;;
27543;SDS011;17996;51.056;3.656;2023-05-29T13:59:18;17.25;;;3.38;;
27543;SDS011;17996;51.056;3.656;2023-05-29T14:01:44;14.32;;;3.15;;
27543;SDS011;17996;51.056;3.656;2023-05-29T14:04:10;15.70;;;3.35;;
27543;SDS011;17996;51.056;3.656;2023-05-29T14:06:36;14.40;;;3.63;;
27543;SDS011;17996;51.056;3.656;2023-05-29T14:09:02;15.68;;;3.38;;
27543;SDS011;17996;51.056;3.656;2023-05-29T14:11:28;15.00;;;3.53;;
27543;SDS011;17996;51.056;3.656;2023-05-29T14:13:54;10.48;;;3.05;;
27543;SDS011;17996;51.056;3.656;2023-05-29T14:16:20;13.75;;;3.70;;
27543;SDS011;17996;51.056;3.656;2023-05-29T14:18:45;15.80;;;3.30;;
27543;SDS011;17996;51.056;3.656;2023-05-29T14:21:13;13.75;;;3.20;;
27543;SDS011;17996;51.056;3.656;2023-05-29T14:23:39;13.18;;;3.45;;
27543;SDS011;17996;51.056;3.656;2023-05-29T14:26:04;20.23;;;3.90;;
27543;SDS011;17996;51.056;3.656;2023-05-29T14:28:30;7.50;;;3.38;;
27543;SDS011;17996;51.056;3.656;2023-05-29T14:30:56;12.45;;;3.63;;
27543;SDS011;17996;51.056;3.656;2023-05-29T14:33:22;13.23;;;3.45;;
27543;SDS011;17996;51.056;3.656;2023-05-29T14:35:47;18.80;;;4.05;;
27543;SDS011;17996;51.056;3.656;2023-05-29T14:38:13;18.23;;;4.22;;
27543;SDS011;17996;51.056;3.656;2023-05-29T14:40:38;9.85;;;3.03;;
27543;SDS011;17996;51.056;3.656;2023-05-29T14:43:04;22.33;;;4.82;;
27543;SDS011;17996;51.056;3.656;2023-05-29T14:45:30;12.70;;;3.35;;
27543;SDS011;17996;51.056;3.656;2023-05-29T14:47:56;12.85;;;4.43;;
27543;SDS011;17996;51.056;3.656;2023-05-29T14:50:22;14.00;;;3.97;;
27543;SDS011;17996;51.056;3.656;2023-05-29T14:52:48;10.10;;;3.75;;
27543;SDS011;17996;51.056;3.656;2023-05-29T14:55:13;12.82;;;4.53;;
27543;SDS011;17996;51.056;3.656;2023-05-29T14:57:42;14.57;;;4.05;;
27543;SDS011;17996;51.056;3.656;2023-05-29T15:00:07;15.23;;;3.97;;
27543;SDS011;17996;51.056;3.656;2023-05-29T15:02:34;15.93;;;4.20;;
27543;SDS011;17996;51.056;3.656;2023-05-29T15:04:59;15.23;;;3.90;;